createdAt,value
2023-02-19T00:31:44.483Z,2.10
2023-02-19T00:34:12.876Z,2.10
2023-02-19T00:36:42.126Z,2.00
2023-02-19T00:39:12.109Z,2.00
2023-02-19T00:41:39.129Z,1.90
2023-02-19T00:44:08.149Z,2.10
2023-02-19T00:46:40.513Z,1.90
2023-02-19T00:49:09.064Z,2.00
2023-02-19T00:51:38.298Z,2.00
2023-02-19T00:54:06.255Z,2.10
2023-02-19T00:56:33.817Z,2.10
2023-02-19T00:59:00.795Z,1.80
2023-02-19T01:01:27.791Z,1.90
2023-02-19T01:03:54.778Z,2.20
2023-02-19T01:06:22.120Z,2.10
2023-02-19T01:08:49.470Z,1.90
2023-02-19T01:11:17.637Z,1.80
2023-02-19T01:13:44.747Z,1.90
2023-02-19T01:16:17.661Z,2.00
2023-02-19T01:18:45.500Z,2.00
2023-02-19T01:21:23.693Z,1.90
2023-02-19T01:23:51.512Z,1.80
2023-02-19T01:26:30.779Z,2.00
2023-02-19T01:28:58.494Z,1.80
2023-02-19T01:31:26.084Z,1.80
2023-02-19T01:33:56.082Z,1.80
2023-02-19T01:36:23.214Z,1.60
2023-02-19T01:38:50.445Z,1.60
2023-02-19T01:41:21.186Z,1.70
2023-02-19T01:44:18.303Z,1.90
2023-02-19T01:46:46.497Z,1.90
2023-02-19T01:49:23.986Z,1.70
2023-02-19T01:52:04.621Z,1.90
2023-02-19T01:54:35.863Z,1.70
2023-02-19T01:57:07.015Z,1.80
2023-02-19T01:59:34.531Z,1.80
2023-02-19T02:02:01.752Z,1.80
2023-02-19T02:04:31.868Z,1.70
2023-02-19T02:07:00.544Z,1.90
2023-02-19T02:09:48.797Z,1.70
2023-02-19T02:12:15.941Z,1.80
2023-02-19T02:14:47.384Z,1.90
2023-02-19T02:17:20.584Z,1.80
2023-02-19T02:20:15.412Z,1.70
2023-02-19T02:23:21.378Z,1.40
2023-02-19T02:25:51.290Z,1.70
2023-02-19T02:28:53.176Z,1.50
2023-02-19T02:31:26.857Z,1.40
2023-02-19T02:34:15.191Z,1.60
2023-02-19T03:38:28.746Z,1.30
2023-02-19T03:41:11.853Z,1.40
2023-02-19T03:43:52.171Z,1.40
2023-02-19T03:46:39.318Z,1.40
2023-02-19T03:49:15.833Z,1.20
2023-02-19T03:51:50.326Z,1.40
2023-02-19T03:54:37.618Z,1.40
2023-02-19T03:57:14.363Z,1.30
2023-02-19T03:59:53.551Z,1.50
2023-02-19T04:02:27.463Z,1.70
2023-02-19T04:05:16.775Z,1.50
2023-02-19T04:07:49.013Z,1.50
2023-02-19T04:10:18.543Z,1.60
2023-02-19T04:12:50.189Z,1.30
2023-02-19T04:15:23.109Z,1.40
2023-02-19T04:18:00.142Z,1.40
2023-02-19T04:20:30.552Z,1.40
2023-02-19T04:22:57.966Z,1.30
2023-02-19T04:25:27.496Z,1.30
2023-02-19T04:27:55.053Z,1.40
2023-02-19T04:30:22.131Z,1.40
2023-02-19T04:32:49.064Z,1.20
2023-02-19T04:35:16.056Z,1.40
2023-02-19T04:37:43.541Z,1.20
2023-02-19T04:40:10.853Z,1.20
2023-02-19T04:42:42.090Z,1.10
2023-02-19T04:45:09.700Z,1.30
2023-02-19T04:47:36.637Z,1.20
2023-02-19T04:50:03.927Z,1.30
2023-02-19T04:52:30.884Z,1.50
2023-02-19T04:54:57.772Z,1.50
2023-02-19T04:57:24.923Z,1.40
2023-02-19T04:59:51.855Z,1.20
2023-02-19T05:02:18.951Z,1.20
2023-02-19T05:04:45.866Z,1.40
2023-02-19T05:07:12.800Z,1.40
2023-02-19T05:09:39.786Z,1.30
2023-02-19T05:12:06.987Z,1.30
2023-02-19T05:14:33.904Z,1.20
2023-02-19T05:17:00.828Z,1.20
2023-02-19T05:19:27.773Z,1.50
2023-02-19T05:21:54.714Z,1.30
2023-02-19T05:24:21.886Z,1.20
2023-02-19T05:26:48.833Z,1.30
2023-02-19T05:29:15.801Z,1.50
2023-02-19T05:31:42.879Z,1.60
2023-02-19T05:34:09.888Z,1.50
2023-02-19T05:36:39.128Z,1.30
2023-02-19T05:39:09.546Z,1.50
2023-02-19T05:41:36.494Z,1.30
2023-02-19T05:44:03.427Z,1.30
2023-02-19T05:46:31.128Z,1.40
2023-02-19T05:48:58.557Z,1.30
2023-02-19T05:51:27.215Z,1.40
2023-02-19T05:53:56.674Z,1.40
2023-02-19T05:56:40.572Z,1.50
2023-02-19T05:59:23.557Z,1.30
2023-02-19T06:01:54.480Z,1.40
2023-02-19T06:04:21.894Z,1.30
2023-02-19T06:06:49.146Z,1.60
2023-02-19T06:09:16.303Z,1.50
2023-02-19T06:11:43.751Z,1.40
2023-02-19T06:14:13.654Z,1.60
2023-02-19T06:16:41.012Z,1.90
2023-02-19T06:19:08.108Z,2.30
2023-02-19T06:21:35.430Z,2.40
2023-02-19T06:24:09.353Z,2.90
2023-02-19T06:26:36.381Z,2.60
2023-02-19T06:29:03.373Z,2.50
2023-02-19T06:31:30.479Z,2.70
2023-02-19T06:33:57.468Z,2.70
2023-02-19T06:36:24.542Z,2.60
2023-02-19T06:38:51.644Z,2.40
2023-02-19T06:41:19.306Z,2.20
2023-02-19T06:43:46.786Z,2.20
2023-02-19T06:46:14.561Z,2.30
2023-02-19T06:48:43.296Z,2.00
2023-02-19T06:51:16.031Z,2.30
2023-02-19T06:53:43.093Z,2.20
2023-02-19T06:56:24.756Z,2.40
2023-02-19T06:58:53.636Z,2.40
2023-02-19T07:01:21.127Z,2.50
2023-02-19T07:03:48.226Z,2.60
2023-02-19T07:06:15.338Z,2.70
2023-02-19T07:08:42.348Z,2.80
2023-02-19T07:11:09.733Z,2.40
2023-02-19T07:13:37.467Z,2.30
2023-02-19T07:16:10.040Z,2.20
2023-02-19T07:18:37.564Z,2.30
2023-02-19T07:21:04.751Z,2.30
2023-02-19T07:23:31.909Z,2.10
2023-02-19T07:25:59.087Z,2.10
2023-02-19T07:28:26.299Z,2.40
2023-02-19T07:30:53.691Z,2.20
2023-02-19T07:33:20.816Z,2.20
2023-02-19T07:35:51.500Z,2.40
2023-02-19T07:38:20.694Z,2.50
2023-02-19T07:40:59.320Z,3.30
2023-02-19T07:43:28.741Z,4.20
2023-02-19T07:45:56.267Z,5.10
2023-02-19T07:48:23.516Z,5.60
2023-02-19T07:50:54.615Z,5.50
2023-02-19T07:53:23.594Z,5.60
2023-02-19T07:55:51.422Z,6.00
2023-02-19T07:58:18.494Z,6.00
2023-02-19T08:00:45.731Z,5.70
2023-02-19T08:03:12.735Z,6.40
2023-02-19T08:05:42.036Z,6.70
2023-02-19T08:08:11.547Z,7.30
2023-02-19T08:11:01.401Z,7.30
2023-02-19T08:13:30.886Z,7.10
2023-02-19T08:16:20.146Z,7.90
2023-02-19T08:18:51.406Z,6.30
2023-02-19T08:21:18.813Z,5.80
2023-02-19T08:23:46.572Z,6.40
2023-02-19T08:26:13.855Z,7.10
2023-02-19T08:28:41.531Z,6.70
2023-02-19T08:31:10.118Z,5.80
2023-02-19T08:33:38.046Z,5.40
2023-02-19T08:36:07.078Z,5.10
2023-02-19T08:38:36.046Z,6.00
2023-02-19T08:41:12.561Z,5.70
2023-02-19T08:43:40.805Z,5.40
2023-02-19T08:46:10.428Z,4.90
2023-02-19T08:48:38.622Z,4.20
2023-02-19T08:51:09.128Z,5.40
2023-02-19T08:53:37.704Z,6.00
2023-02-19T08:56:13.493Z,6.80
2023-02-19T08:58:40.790Z,6.80
2023-02-19T09:01:12.944Z,7.10
2023-02-19T09:03:40.789Z,8.00
2023-02-19T09:06:08.136Z,8.20
2023-02-19T09:08:35.233Z,8.60
2023-02-19T09:11:04.708Z,7.30
2023-02-19T09:13:31.928Z,6.90
2023-02-19T09:15:59.218Z,6.90
2023-02-19T09:18:26.482Z,7.10
2023-02-19T09:20:53.505Z,7.50
2023-02-19T09:23:20.836Z,7.70
2023-02-19T09:25:47.839Z,8.00
2023-02-19T09:28:15.683Z,8.20
2023-02-19T09:30:42.736Z,8.30
2023-02-19T09:33:09.707Z,8.50
2023-02-19T09:35:42.159Z,8.70
2023-02-19T09:38:10.945Z,7.70
2023-02-19T09:40:39.261Z,7.40
2023-02-19T09:43:17.998Z,6.70
2023-02-19T09:45:44.966Z,7.10
2023-02-19T09:48:12.830Z,7.70
2023-02-19T09:50:46.019Z,8.40
2023-02-19T09:53:19.784Z,8.90
2023-02-19T09:55:47.213Z,8.90
2023-02-19T09:58:30.133Z,8.30
2023-02-19T10:00:58.983Z,7.70
2023-02-19T10:03:34.447Z,7.30
2023-02-19T10:06:09.458Z,7.30
2023-02-19T10:08:39.881Z,6.70
2023-02-19T10:11:08.215Z,6.30
2023-02-19T10:13:41.992Z,6.00
2023-02-19T10:16:16.149Z,5.90
2023-02-19T10:18:44.857Z,5.40
2023-02-19T10:21:27.445Z,5.10
2023-02-19T10:23:57.670Z,4.50
2023-02-19T10:26:24.996Z,4.90
2023-02-19T10:28:54.202Z,4.90
2023-02-19T10:31:25.822Z,5.50
2023-02-19T10:33:55.292Z,5.80
2023-02-19T10:36:28.701Z,5.30
2023-02-19T10:38:57.953Z,5.10
2023-02-19T10:41:27.403Z,4.80
2023-02-19T10:44:06.685Z,6.50
2023-02-19T10:46:37.186Z,6.30
2023-02-19T10:49:23.437Z,6.80
2023-02-19T10:51:52.417Z,8.00
2023-02-19T10:54:28.617Z,9.00
2023-02-19T10:57:09.061Z,9.10
2023-02-19T10:59:36.025Z,8.60
2023-02-19T11:02:21.465Z,8.00
2023-02-19T11:05:03.744Z,7.10
2023-02-19T11:07:31.010Z,6.00
2023-02-19T11:09:59.040Z,6.20
2023-02-19T11:12:34.417Z,6.60
2023-02-19T11:15:24.179Z,7.60
2023-02-19T11:18:07.009Z,8.50
2023-02-19T11:20:34.269Z,9.90
2023-02-19T11:23:13.834Z,10.80
2023-02-19T11:25:49.859Z,10.90
2023-02-19T11:28:22.924Z,11.40
2023-02-19T11:30:49.909Z,11.50
2023-02-19T11:33:16.802Z,11.00
2023-02-19T11:35:48.431Z,10.90
2023-02-19T11:38:17.891Z,10.80
2023-02-19T11:41:05.193Z,9.80
2023-02-19T11:44:00.079Z,9.40
2023-02-19T11:46:58.074Z,8.90
2023-02-19T11:49:50.773Z,8.00
2023-02-19T11:52:29.618Z,8.30
2023-02-19T11:55:00.915Z,9.40
2023-02-19T11:57:34.756Z,10.30
2023-02-19T12:00:25.239Z,11.10
2023-02-19T12:03:04.701Z,10.80
2023-02-19T12:05:40.935Z,10.10
2023-02-19T12:08:32.332Z,10.00
2023-02-19T12:11:11.056Z,9.10
2023-02-19T12:14:15.493Z,7.40
2023-02-19T12:16:53.492Z,6.90
2023-02-19T12:19:23.220Z,7.10
2023-02-19T12:22:09.179Z,6.90
2023-02-19T12:25:01.023Z,7.10
2023-02-19T12:27:49.507Z,6.60
2023-02-19T12:30:25.621Z,7.00
2023-02-19T12:32:55.615Z,7.40
2023-02-19T12:35:28.474Z,8.60
2023-02-19T12:38:29.468Z,8.50
2023-02-19T12:40:56.500Z,7.50
2023-02-19T12:43:24.803Z,8.00
2023-02-19T12:46:07.020Z,7.80
2023-02-19T12:48:40.535Z,8.40
2023-02-19T12:51:19.861Z,7.70
2023-02-19T12:54:06.127Z,7.00
2023-02-19T12:56:40.177Z,6.20
2023-02-19T12:59:19.090Z,5.60
2023-02-19T13:02:22.143Z,5.60
2023-02-19T13:04:56.720Z,5.80
2023-02-19T13:08:01.053Z,5.00
2023-02-19T13:10:44.529Z,4.50
2023-02-19T13:13:25.668Z,4.20
2023-02-19T13:16:10.234Z,4.60
2023-02-19T13:18:46.075Z,4.90
2023-02-19T13:21:41.216Z,5.30
2023-02-19T13:24:15.523Z,5.40
2023-02-19T13:27:01.004Z,5.30
2023-02-19T13:29:34.359Z,5.00
2023-02-19T13:32:09.853Z,4.80
2023-02-19T13:35:11.792Z,5.10
2023-02-19T13:37:39.007Z,5.10
2023-02-19T13:40:36.312Z,5.00
2023-02-19T13:43:28.125Z,4.90
2023-02-19T13:46:05.386Z,4.90
2023-02-19T13:48:38.787Z,4.90
2023-02-19T13:51:24.291Z,4.40
2023-02-19T13:53:58.900Z,4.30
2023-02-19T13:56:35.597Z,4.10
2023-02-19T13:59:14.497Z,4.00
2023-02-19T14:01:55.782Z,3.70
2023-02-19T14:04:56.321Z,3.70
2023-02-19T14:07:49.343Z,3.90
2023-02-19T14:11:02.684Z,3.80
2023-02-19T14:14:27.020Z,3.30
2023-02-19T14:17:01.336Z,3.20
2023-02-19T14:19:46.966Z,3.20
2023-02-19T14:22:48.970Z,3.30
2023-02-19T14:25:30.319Z,3.40
2023-02-19T14:28:05.866Z,3.10
2023-02-19T14:30:42.159Z,3.50
2023-02-19T14:33:11.498Z,3.40
2023-02-19T14:35:46.821Z,3.40
2023-02-19T14:38:39.475Z,3.30
2023-02-19T14:41:12.582Z,3.40
2023-02-19T14:43:41.170Z,3.50
2023-02-19T14:46:33.628Z,3.30
2023-02-19T14:49:27.198Z,3.20
2023-02-19T14:52:05.584Z,3.00
2023-02-19T14:55:07.703Z,2.90
2023-02-19T14:57:41.424Z,2.80
2023-02-19T15:00:25.395Z,2.90
2023-02-19T15:02:55.798Z,2.70
2023-02-19T15:05:27.296Z,2.80
2023-02-19T15:07:58.100Z,2.70
2023-02-19T15:10:28.372Z,2.80
2023-02-19T15:13:01.581Z,2.80
2023-02-19T15:15:32.925Z,2.70
2023-02-19T15:18:01.940Z,2.70
2023-02-19T15:20:33.241Z,2.40
2023-02-19T15:23:01.698Z,2.60
2023-02-19T15:25:36.041Z,2.40
2023-02-19T15:28:30.197Z,2.60
2023-02-19T15:30:59.974Z,2.70
2023-02-19T15:33:27.992Z,3.00
2023-02-19T15:36:07.762Z,2.70
2023-02-19T15:38:35.466Z,2.90
2023-02-19T15:41:02.896Z,3.10
2023-02-19T15:43:42.209Z,2.90
2023-02-19T15:46:18.969Z,3.10
2023-02-19T15:49:11.155Z,2.90
2023-02-19T15:51:47.418Z,3.30
2023-02-19T15:54:22.506Z,3.10
2023-02-19T15:56:57.196Z,3.00
2023-02-19T15:59:39.845Z,2.70
2023-02-19T16:02:12.409Z,2.90
2023-02-19T16:04:41.978Z,2.90
2023-02-19T16:07:32.052Z,2.80
2023-02-19T16:10:20.710Z,2.70
2023-02-19T16:13:02.914Z,2.60
2023-02-19T16:15:31.859Z,2.60
2023-02-19T16:17:59.722Z,2.40
2023-02-19T16:20:35.430Z,2.20
2023-02-19T16:23:06.019Z,2.30
2023-02-19T16:25:42.269Z,2.30
2023-02-19T16:28:26.541Z,2.50
2023-02-19T16:31:06.022Z,2.20
2023-02-19T16:33:48.937Z,2.60
2023-02-19T16:36:41.974Z,2.50
2023-02-19T16:39:09.308Z,2.50
2023-02-19T16:41:45.473Z,2.40
2023-02-19T16:44:35.970Z,2.40
2023-02-19T16:47:06.532Z,2.40
2023-02-19T16:49:34.015Z,2.20
2023-02-19T16:52:04.184Z,2.30
2023-02-19T16:54:31.444Z,2.40
2023-02-19T16:56:58.448Z,2.20
2023-02-19T16:59:25.430Z,2.40
2023-02-19T17:01:52.471Z,2.60
2023-02-19T17:04:19.551Z,2.60
2023-02-19T17:06:47.644Z,2.50
2023-02-19T17:09:14.751Z,2.60
2023-02-19T17:11:41.689Z,2.60
2023-02-19T17:14:09.562Z,2.50
2023-02-19T17:16:40.710Z,2.40
2023-02-19T17:19:18.595Z,2.60
2023-02-19T17:21:46.766Z,2.60
2023-02-19T17:24:14.266Z,2.50
2023-02-19T17:26:41.566Z,2.40
2023-02-19T17:29:14.126Z,2.60
2023-02-19T17:31:41.436Z,2.50
2023-02-19T17:34:08.774Z,2.40
2023-02-19T17:36:37.968Z,2.40
2023-02-19T17:39:07.334Z,2.30
2023-02-19T17:41:34.280Z,2.50
2023-02-19T17:44:01.221Z,2.50
2023-02-19T17:46:28.250Z,2.30
2023-02-19T17:48:55.724Z,2.40
2023-02-19T17:51:22.863Z,2.40
2023-02-19T17:53:50.042Z,2.40
2023-02-19T17:56:27.464Z,2.60
2023-02-19T17:58:56.107Z,2.50
2023-02-19T18:01:23.597Z,2.70
2023-02-19T18:03:51.034Z,2.60
2023-02-19T18:06:18.608Z,2.50
2023-02-19T18:08:51.624Z,2.60
2023-02-19T18:11:20.110Z,2.80
2023-02-19T18:13:48.441Z,2.50
2023-02-19T18:16:16.809Z,2.40
2023-02-19T18:18:45.058Z,2.60
2023-02-19T18:21:13.757Z,2.50
2023-02-19T18:23:41.177Z,2.40
2023-02-19T18:26:10.775Z,2.50
2023-02-19T18:28:39.626Z,2.30
2023-02-19T18:31:06.907Z,2.30
2023-02-19T18:33:35.476Z,2.50
2023-02-19T18:36:02.784Z,2.20
2023-02-19T18:38:30.340Z,2.10
2023-02-19T18:40:58.776Z,2.30
2023-02-19T18:43:26.318Z,2.00
2023-02-19T18:45:53.453Z,2.30
2023-02-19T18:48:20.928Z,2.30
2023-02-19T18:50:47.991Z,2.20
2023-02-19T18:53:15.130Z,2.30
2023-02-19T18:55:42.131Z,2.50
2023-02-19T18:58:09.106Z,2.50
2023-02-19T19:00:36.333Z,2.30
2023-02-19T19:03:03.569Z,2.60
2023-02-19T19:05:30.596Z,2.60
2023-02-19T19:08:01.616Z,2.50
2023-02-19T19:10:29.181Z,2.50
2023-02-19T19:12:56.654Z,2.50
2023-02-19T19:15:24.490Z,2.30
2023-02-19T19:17:51.875Z,2.40
2023-02-19T19:20:23.150Z,2.20
2023-02-19T19:22:54.263Z,2.30
2023-02-19T19:25:22.864Z,2.40
2023-02-19T19:27:51.811Z,2.30
2023-02-19T19:30:20.315Z,2.30
2023-02-19T19:32:51.865Z,2.30
2023-02-19T19:35:20.168Z,2.30
2023-02-19T19:37:47.125Z,2.40
2023-02-19T19:40:15.627Z,2.30
2023-02-19T19:42:44.395Z,2.30
2023-02-19T19:45:11.925Z,2.40
2023-02-19T19:47:38.930Z,2.30
2023-02-19T19:50:06.280Z,2.50
2023-02-19T19:52:33.209Z,2.40
2023-02-19T19:55:00.180Z,2.40
2023-02-19T19:57:27.894Z,2.30
2023-02-19T19:59:55.015Z,2.40
2023-02-19T20:02:23.826Z,2.30
2023-02-19T20:04:50.851Z,2.40
2023-02-19T20:07:17.911Z,2.30
2023-02-19T20:09:49.604Z,2.40
2023-02-19T20:12:18.086Z,2.50
2023-02-19T20:14:46.575Z,2.20
2023-02-19T20:17:14.221Z,2.30
2023-02-19T20:19:41.364Z,2.30
2023-02-19T20:22:08.273Z,2.30
2023-02-19T20:24:35.190Z,2.30
2023-02-19T20:27:02.712Z,2.30
2023-02-19T20:29:31.810Z,2.20
2023-02-19T20:32:00.298Z,2.20
2023-02-19T20:34:27.621Z,2.20
2023-02-19T20:36:55.296Z,1.90
2023-02-19T20:39:22.670Z,2.10
2023-02-19T20:41:51.686Z,2.00
2023-02-19T20:44:19.546Z,2.00
2023-02-19T20:46:51.083Z,2.10
2023-02-19T20:49:20.243Z,2.20
2023-02-19T20:51:50.348Z,2.30
2023-02-19T20:54:18.707Z,2.00
2023-02-19T20:56:47.410Z,2.10
2023-02-19T20:59:15.577Z,1.90
2023-02-19T21:01:43.051Z,2.10
2023-02-19T21:04:10.537Z,2.10
2023-02-19T21:06:37.629Z,2.10
2023-02-19T21:09:05.879Z,2.30
2023-02-19T21:11:33.192Z,2.10
2023-02-19T21:14:00.195Z,2.00
2023-02-19T21:16:29.218Z,2.10
2023-02-19T21:18:56.748Z,1.90
2023-02-19T21:21:27.360Z,2.10
2023-02-19T21:23:55.897Z,2.10
2023-02-19T21:26:24.011Z,1.90
2023-02-19T21:28:54.136Z,1.90
2023-02-19T21:31:22.830Z,2.00
2023-02-19T21:33:51.418Z,2.00
2023-02-19T21:36:19.100Z,1.90
2023-02-19T21:38:46.746Z,1.90
2023-02-19T21:41:13.694Z,1.80
2023-02-19T21:43:40.714Z,1.90
2023-02-19T21:46:11.291Z,2.00
2023-02-19T21:48:38.557Z,1.90
2023-02-19T21:51:05.756Z,1.80
2023-02-19T21:53:32.743Z,2.00
2023-02-19T21:55:59.751Z,2.10
2023-02-19T21:58:27.093Z,1.90
2023-02-19T22:00:54.312Z,1.80
2023-02-19T22:03:21.787Z,2.00
2023-02-19T22:05:48.915Z,1.90
2023-02-19T22:08:17.560Z,2.00
2023-02-19T22:10:50.710Z,1.70
2023-02-19T22:13:21.564Z,2.00
2023-02-19T22:15:49.957Z,1.60
2023-02-19T22:18:16.888Z,1.70
2023-02-19T22:20:43.821Z,1.70
2023-02-19T22:23:10.803Z,1.80
2023-02-19T22:25:37.737Z,1.60
2023-02-19T22:28:05.730Z,1.60
2023-02-19T22:30:32.939Z,1.50
2023-02-19T22:33:00.016Z,1.40
2023-02-19T22:35:27.240Z,1.60
2023-02-19T22:37:54.167Z,1.50
2023-02-19T22:40:21.246Z,1.50
2023-02-19T22:42:48.182Z,1.50
2023-02-19T22:45:15.287Z,1.50
2023-02-19T22:47:44.661Z,1.40
2023-02-19T22:50:19.674Z,1.40
2023-02-19T22:52:46.721Z,1.30
2023-02-19T22:55:13.660Z,1.40
2023-02-19T22:57:40.645Z,1.50
2023-02-19T23:00:08.793Z,1.50
2023-02-19T23:02:35.805Z,1.60
2023-02-19T23:05:02.728Z,1.60
2023-02-19T23:07:29.769Z,1.60
2023-02-19T23:09:56.932Z,1.60
2023-02-19T23:12:24.096Z,1.60
2023-02-19T23:14:51.211Z,1.80
2023-02-19T23:17:18.248Z,1.50
2023-02-19T23:19:45.455Z,1.60
2023-02-19T23:22:12.619Z,1.50
2023-02-19T23:24:39.620Z,1.60
2023-02-19T23:27:06.808Z,1.70
2023-02-19T23:29:34.002Z,1.70
2023-02-19T23:32:01.145Z,1.50
2023-02-19T23:34:28.095Z,1.80
2023-02-19T23:36:55.594Z,1.60
2023-02-19T23:39:22.951Z,1.50
2023-02-19T23:41:57.696Z,1.50
2023-02-19T23:44:25.573Z,1.40
2023-02-19T23:46:52.565Z,1.60
2023-02-19T23:49:19.543Z,1.70
2023-02-19T23:51:46.466Z,1.50
2023-02-19T23:54:13.505Z,1.60
2023-02-19T23:56:40.598Z,1.40
2023-02-19T23:59:07.673Z,1.50
